Time,TemperatureF,DewpointF,PressureIn,WindDirection,WindDirectionDegrees,WindSpeedMPH,WindSpeedGustMPH,Humidity,HourlyPrecipIn,Conditions,Clouds,dailyrainin,SoftwareType,DateUTC
2013-07-31 00:02:00,56.6,55.8,30.02,ESE,117,0.0,0.0,97,0.00,,,0.00,Wunderground v.1.15,2013-07-31 07:02:00,
2013-07-31 00:07:00,56.6,55.8,30.02,ESE,108,0.0,1.0,97,0.00,,,0.00,Wunderground v.1.15,2013-07-31 07:07:00,
2013-07-31 00:12:00,56.6,55.8,30.02,ESE,108,0.0,0.0,97,0.00,,,0.00,Wunderground v.1.15,2013-07-31 07:12:00,
2013-07-31 00:17:00,56.6,55.8,30.01,ESE,108,0.0,2.0,97,0.00,,,0.00,Wunderground v.1.15,2013-07-31 07:17:00,
2013-07-31 00:22:00,56.6,55.5,30.01,North,350,1.0,2.0,96,0.00,,,0.00,Wunderground v.1.15,2013-07-31 07:22:00,
2013-07-31 00:28:00,56.6,55.5,30.01,NNW,331,0.0,3.0,96,0.00,,,0.00,Wunderground v.1.15,2013-07-31 07:28:00,
2013-07-31 00:33:00,56.6,55.5,30.01,NNW,330,0.0,2.0,96,0.00,,,0.00,Wunderground v.1.15,2013-07-31 07:33:00,
2013-07-31 00:38:00,56.6,55.5,30.01,NNW,330,0.0,2.0,96,0.00,,,0.00,Wunderground v.1.15,2013-07-31 07:38:00,
2013-07-31 00:43:00,56.6,55.5,30.01,NNW,330,0.0,0.0,96,0.00,,,0.00,Wunderground v.1.15,2013-07-31 07:43:00,
2013-07-31 00:48:00,56.6,55.5,30.01,NNW,330,0.0,1.0,96,0.00,,,0.00,Wunderground v.1.15,2013-07-31 07:48:00,
2013-07-31 00:53:00,56.6,55.5,30.01,NNW,330,0.0,0.0,96,0.00,,,0.00,Wunderground v.1.15,2013-07-31 07:53:00,
2013-07-31 00:58:00,56.7,55.6,30.01,NNW,330,0.0,0.0,96,0.00,,,0.00,Wunderground v.1.15,2013-07-31 07:58:00,
2013-07-31 01:03:00,56.7,55.6,30.01,NNW,330,0.0,0.0,96,0.00,,,0.00,Wunderground v.1.15,2013-07-31 08:03:00,
2013-07-31 01:08:00,56.7,55.6,30.01,NNW,331,1.0,1.0,96,0.00,,,0.00,Wunderground v.1.15,2013-07-31 08:08:00,
2013-07-31 01:13:00,56.6,55.2,30.01,NW,314,0.0,1.0,95,0.00,,,0.00,Wunderground v.1.15,2013-07-31 08:13:00,
2013-07-31 01:18:00,56.6,55.2,30.01,NW,314,0.0,1.0,95,0.00,,,0.00,Wunderground v.1.15,2013-07-31 08:18:00,
2013-07-31 01:23:00,56.6,55.2,30.01,NW,314,0.0,1.0,95,0.00,,,0.00,Wunderground v.1.15,2013-07-31 08:23:00,
2013-07-31 01:28:00,56.6,55.2,30.01,NW,314,0.0,1.0,95,0.00,,,0.00,Wunderground v.1.15,2013-07-31 08:28:00,
2013-07-31 01:33:00,56.6,55.2,30.01,NW,314,0.0,0.0,95,0.00,,,0.00,Wunderground v.1.15,2013-07-31 08:33:00,
2013-07-31 01:38:00,56.6,55.2,30.01,NNW,327,0.0,2.0,95,0.00,,,0.00,Wunderground v.1.15,2013-07-31 08:38:00,
2013-07-31 01:43:00,56.5,55.1,30.01,NNW,327,0.0,0.0,95,0.00,,,0.00,Wunderground v.1.15,2013-07-31 08:43:00,
2013-07-31 01:48:00,56.5,55.1,30.01,NNW,327,0.0,1.0,95,0.00,,,0.00,Wunderground v.1.15,2013-07-31 08:48:00,
2013-07-31 01:53:00,56.5,55.1,30.01,NNW,327,0.0,0.0,95,0.00,,,0.00,Wunderground v.1.15,2013-07-31 08:53:00,
2013-07-31 01:58:00,56.5,55.1,30.01,NNW,327,0.0,0.0,95,0.00,,,0.00,Wunderground v.1.15,2013-07-31 08:58:00,
2013-07-31 02:03:00,56.5,55.1,30.01,NNW,327,0.0,0.0,95,0.00,,,0.00,Wunderground v.1.15,2013-07-31 09:03:00,
2013-07-31 02:08:00,56.3,54.9,30.01,NW,326,0.0,1.0,95,0.00,,,0.00,Wunderground v.1.15,2013-07-31 09:08:00,
2013-07-31 02:13:00,56.3,54.9,30.01,NW,326,0.0,0.0,95,0.00,,,0.00,Wunderground v.1.15,2013-07-31 09:13:00,
2013-07-31 02:18:00,56.3,54.9,30.01,NW,326,0.0,0.0,95,0.00,,,0.00,Wunderground v.1.15,2013-07-31 09:18:00,
2013-07-31 02:23:00,56.3,54.9,30.01,NW,323,0.0,1.0,95,0.00,,,0.00,Wunderground v.1.15,2013-07-31 09:23:00,
2013-07-31 02:28:00,56.3,54.9,30.01,NW,323,1.0,2.0,95,0.00,,,0.00,Wunderground v.1.15,2013-07-31 09:28:00,
2013-07-31 02:33:00,56.3,54.9,30.01,NW,323,0.0,0.0,95,0.00,,,0.00,Wunderground v.1.15,2013-07-31 09:33:00,
2013-07-31 02:38:00,56.3,54.9,30.01,NW,323,0.0,0.0,95,0.00,,,0.00,Wunderground v.1.15,2013-07-31 09:38:00,
2013-07-31 02:43:00,56.3,54.9,30.01,NNW,338,0.0,1.0,95,0.00,,,0.00,Wunderground v.1.15,2013-07-31 09:43:00,
2013-07-31 02:48:00,56.3,54.9,30.01,SSW,211,0.0,2.0,95,0.00,,,0.00,Wunderground v.1.15,2013-07-31 09:48:00,
2013-07-31 02:53:00,56.3,54.9,30.01,SSW,211,0.0,0.0,95,0.00,,,0.00,Wunderground v.1.15,2013-07-31 09:53:00,
2013-07-31 02:58:00,56.3,54.9,30.01,SW,233,0.0,0.0,95,0.00,,,0.00,Wunderground v.1.15,2013-07-31 09:58:00,
2013-07-31 03:03:00,56.3,54.9,30.01,SW,233,0.0,0.0,95,0.00,,,0.00,Wunderground v.1.15,2013-07-31 10:03:00,
2013-07-31 03:08:00,56.3,54.9,30.01,North,0,0.0,2.0,95,0.00,,,0.00,Wunderground v.1.15,2013-07-31 10:08:00,
2013-07-31 03:13:00,56.3,54.9,30.01,North,0,1.0,1.0,95,0.00,,,0.00,Wunderground v.1.15,2013-07-31 10:13:00,
2013-07-31 03:18:00,56.2,54.8,30.01,North,0,0.0,1.0,95,0.00,,,0.00,Wunderground v.1.15,2013-07-31 10:18:00,
2013-07-31 03:23:00,56.2,54.8,30.01,North,0,0.0,0.0,95,0.00,,,0.00,Wunderground v.1.15,2013-07-31 10:23:00,
2013-07-31 03:28:00,56.2,54.8,30.01,NE,35,0.0,1.0,95,0.00,,,0.00,Wunderground v.1.15,2013-07-31 10:28:00,
2013-07-31 03:33:00,56.0,54.6,30.01,East,82,0.0,1.0,95,0.00,,,0.00,Wunderground v.1.15,2013-07-31 10:33:00,
2013-07-31 03:38:00,56.0,54.6,30.01,East,82,0.0,1.0,95,0.00,,,0.00,Wunderground v.1.15,2013-07-31 10:38:00,
2013-07-31 03:43:00,56.0,54.6,30.01,East,82,0.0,0.0,95,0.00,,,0.00,Wunderground v.1.15,2013-07-31 10:43:00,
2013-07-31 03:48:00,56.0,54.6,30.00,East,82,0.0,0.0,95,0.00,,,0.00,Wunderground v.1.15,2013-07-31 10:48:00,
2013-07-31 03:53:00,56.0,54.6,30.00,East,82,0.0,0.0,95,0.00,,,0.00,Wunderground v.1.15,2013-07-31 10:53:00,
2013-07-31 03:58:00,56.0,54.6,30.00,East,82,0.0,0.0,95,0.00,,,0.00,Wunderground v.1.15,2013-07-31 10:58:00,
2013-07-31 04:03:00,56.0,54.6,30.00,East,82,0.0,0.0,95,0.00,,,0.00,Wunderground v.1.15,2013-07-31 11:03:00,
2013-07-31 04:08:00,56.0,54.9,30.00,East,82,0.0,0.0,96,0.00,,,0.00,Wunderground v.1.15,2013-07-31 11:08:00,
2013-07-31 04:13:00,56.0,54.6,30.00,East,82,0.0,2.0,95,0.00,,,0.00,Wunderground v.1.15,2013-07-31 11:13:00,
2013-07-31 04:18:00,56.0,54.9,30.00,East,82,0.0,2.0,96,0.00,,,0.00,Wunderground v.1.15,2013-07-31 11:18:00,
2013-07-31 04:23:00,56.0,54.9,30.00,East,82,0.0,1.0,96,0.00,,,0.00,Wunderground v.1.15,2013-07-31 11:23:00,
2013-07-31 04:28:00,56.0,54.9,30.00,East,82,0.0,1.0,96,0.00,,,0.00,Wunderground v.1.15,2013-07-31 11:28:00,
2013-07-31 04:33:00,55.9,54.8,30.01,East,82,0.0,0.0,96,0.00,,,0.00,Wunderground v.1.15,2013-07-31 11:33:00,
2013-07-31 04:38:00,55.9,54.8,30.01,East,82,0.0,0.0,96,0.00,,,0.00,Wunderground v.1.15,2013-07-31 11:38:00,
2013-07-31 04:43:00,55.9,54.8,30.01,East,82,0.0,0.0,96,0.00,,,0.00,Wunderground v.1.15,2013-07-31 11:43:00,
2013-07-31 04:48:00,55.9,54.8,30.01,East,82,0.0,1.0,96,0.00,,,0.00,Wunderground v.1.15,2013-07-31 11:48:00,
2013-07-31 04:53:00,55.7,54.6,30.01,East,82,0.0,0.0,96,0.00,,,0.00,Wunderground v.1.15,2013-07-31 11:53:00,
2013-07-31 04:58:00,55.7,54.6,30.01,East,82,0.0,0.0,96,0.00,,,0.00,Wunderground v.1.15,2013-07-31 11:58:00,
2013-07-31 05:03:00,55.7,54.6,30.00,East,82,0.0,0.0,96,0.00,,,0.00,Wunderground v.1.15,2013-07-31 12:03:00,
2013-07-31 05:08:00,55.7,54.6,30.00,East,82,0.0,0.0,96,0.00,,,0.00,Wunderground v.1.15,2013-07-31 12:08:00,
2013-07-31 05:13:00,55.7,54.6,30.00,East,82,0.0,0.0,96,0.00,,,0.00,Wunderground v.1.15,2013-07-31 12:13:00,
2013-07-31 05:18:00,55.7,54.6,30.01,East,82,0.0,0.0,96,0.00,,,0.00,Wunderground v.1.15,2013-07-31 12:18:00,
2013-07-31 05:23:00,55.7,54.6,30.01,East,82,0.0,1.0,96,0.00,,,0.00,Wunderground v.1.15,2013-07-31 12:23:00,
2013-07-31 05:28:00,55.6,54.5,30.01,East,82,0.0,2.0,96,0.00,,,0.00,Wunderground v.1.15,2013-07-31 12:28:00,
2013-07-31 05:34:00,55.6,54.5,30.01,East,82,0.0,0.0,96,0.00,,,0.00,Wunderground v.1.15,2013-07-31 12:34:00,
2013-07-31 05:39:00,55.6,54.5,30.01,East,82,0.0,0.0,96,0.00,,,0.00,Wunderground v.1.15,2013-07-31 12:39:00,
2013-07-31 05:44:00,55.4,54.3,30.01,East,82,0.0,0.0,96,0.00,,,0.00,Wunderground v.1.15,2013-07-31 12:44:00,
2013-07-31 05:49:00,55.4,54.3,30.01,East,82,0.0,2.0,96,0.00,,,0.00,Wunderground v.1.15,2013-07-31 12:49:00,
2013-07-31 05:54:00,55.4,54.3,30.01,North,353,0.0,1.0,96,0.00,,,0.00,Wunderground v.1.15,2013-07-31 12:54:00,
2013-07-31 05:59:00,55.4,54.3,30.01,North,353,0.0,1.0,96,0.00,,,0.00,Wunderground v.1.15,2013-07-31 12:59:00,
2013-07-31 06:04:00,55.4,54.3,30.01,North,353,0.0,0.0,96,0.00,,,0.00,Wunderground v.1.15,2013-07-31 13:04:00,
2013-07-31 06:09:00,55.4,54.3,30.01,North,353,0.0,0.0,96,0.00,,,0.00,Wunderground v.1.15,2013-07-31 13:09:00,
2013-07-31 06:14:00,55.4,54.3,30.01,North,353,0.0,0.0,96,0.00,,,0.00,Wunderground v.1.15,2013-07-31 13:14:00,
2013-07-31 06:19:00,55.4,54.3,30.01,North,353,0.0,0.0,96,0.00,,,0.00,Wunderground v.1.15,2013-07-31 13:19:00,
2013-07-31 06:24:00,55.4,54.3,30.01,North,353,0.0,0.0,96,0.00,,,0.00,Wunderground v.1.15,2013-07-31 13:24:00,
2013-07-31 06:29:00,55.4,54.6,30.01,North,353,0.0,0.0,97,0.00,,,0.00,Wunderground v.1.15,2013-07-31 13:29:00,
2013-07-31 06:34:00,55.6,54.8,30.01,North,353,0.0,1.0,97,0.00,,,0.00,Wunderground v.1.15,2013-07-31 13:34:00,
2013-07-31 06:39:00,55.6,54.5,30.01,North,353,0.0,1.0,96,0.00,,,0.00,Wunderground v.1.15,2013-07-31 13:39:00,
2013-07-31 06:44:00,55.6,54.5,30.01,North,353,0.0,0.0,96,0.00,,,0.00,Wunderground v.1.15,2013-07-31 13:44:00,
2013-07-31 06:49:00,55.4,54.3,30.02,North,353,0.0,0.0,96,0.00,,,0.00,Wunderground v.1.15,2013-07-31 13:49:00,
2013-07-31 06:54:00,55.4,54.3,30.02,North,353,0.0,0.0,96,0.00,,,0.00,Wunderground v.1.15,2013-07-31 13:54:00,
2013-07-31 06:59:00,55.4,54.3,30.02,North,353,0.0,0.0,96,0.00,,,0.00,Wunderground v.1.15,2013-07-31 13:59:00,
2013-07-31 07:04:00,55.6,54.5,30.02,North,353,0.0,1.0,96,0.00,,,0.00,Wunderground v.1.15,2013-07-31 14:04:00,
2013-07-31 07:09:00,55.6,54.5,30.02,North,353,0.0,1.0,96,0.00,,,0.00,Wunderground v.1.15,2013-07-31 14:09:00,
2013-07-31 07:14:00,55.6,54.5,30.02,North,353,0.0,0.0,96,0.00,,,0.00,Wunderground v.1.15,2013-07-31 14:14:00,
2013-07-31 07:19:00,55.6,54.5,30.03,North,353,0.0,0.0,96,0.00,,,0.00,Wunderground v.1.15,2013-07-31 14:19:00,
2013-07-31 07:24:00,55.6,54.5,30.03,North,353,0.0,0.0,96,0.00,,,0.00,Wunderground v.1.15,2013-07-31 14:24:00,
2013-07-31 07:29:00,55.6,54.5,30.03,North,353,0.0,0.0,96,0.00,,,0.00,Wunderground v.1.15,2013-07-31 14:29:00,
2013-07-31 07:34:00,55.6,54.5,30.03,North,353,0.0,0.0,96,0.00,,,0.00,Wunderground v.1.15,2013-07-31 14:34:00,
2013-07-31 07:39:00,55.6,54.5,30.03,North,353,0.0,0.0,96,0.00,,,0.00,Wunderground v.1.15,2013-07-31 14:39:00,
2013-07-31 07:44:00,55.7,54.6,30.03,North,353,0.0,0.0,96,0.00,,,0.00,Wunderground v.1.15,2013-07-31 14:44:00,
2013-07-31 07:49:00,55.7,54.6,30.03,North,358,0.0,0.0,96,0.00,,,0.00,Wunderground v.1.15,2013-07-31 14:49:00,
2013-07-31 07:54:00,55.9,54.8,30.03,North,358,0.0,0.0,96,0.00,,,0.00,Wunderground v.1.15,2013-07-31 14:54:00,
2013-07-31 07:59:00,55.9,54.8,30.03,North,358,0.0,0.0,96,0.00,,,0.00,Wunderground v.1.15,2013-07-31 14:59:00,
2013-07-31 08:04:00,56.0,54.9,30.03,North,358,0.0,0.0,96,0.00,,,0.00,Wunderground v.1.15,2013-07-31 15:04:00,
2013-07-31 08:09:00,56.2,54.8,30.03,North,358,0.0,1.0,95,0.00,,,0.00,Wunderground v.1.15,2013-07-31 15:09:00,
2013-07-31 08:14:00,56.3,54.9,30.03,North,358,0.0,0.0,95,0.00,,,0.00,Wunderground v.1.15,2013-07-31 15:14:00,
2013-07-31 08:19:00,56.3,54.9,30.03,North,358,0.0,0.0,95,0.00,,,0.00,Wunderground v.1.15,2013-07-31 15:19:00,
2013-07-31 08:24:00,56.5,54.8,30.03,North,358,0.0,0.0,94,0.00,,,0.00,Wunderground v.1.15,2013-07-31 15:24:00,
2013-07-31 08:29:00,56.5,54.8,30.03,North,358,0.0,0.0,94,0.00,,,0.00,Wunderground v.1.15,2013-07-31 15:29:00,
2013-07-31 08:34:00,56.6,54.9,30.03,North,358,0.0,0.0,94,0.00,,,0.00,Wunderground v.1.15,2013-07-31 15:34:00,
2013-07-31 08:39:00,56.6,54.6,30.03,North,358,0.0,2.0,93,0.00,,,0.00,Wunderground v.1.15,2013-07-31 15:39:00,
2013-07-31 08:44:00,56.6,54.6,30.03,NW,305,0.0,1.0,93,0.00,,,0.00,Wunderground v.1.15,2013-07-31 15:44:00,
2013-07-31 08:49:00,56.6,54.6,30.04,NE,49,0.0,1.0,93,0.00,,,0.00,Wunderground v.1.15,2013-07-31 15:49:00,
2013-07-31 08:54:00,56.7,54.7,30.04,NE,49,0.0,1.0,93,0.00,,,0.00,Wunderground v.1.15,2013-07-31 15:54:00,
2013-07-31 08:59:00,56.9,54.9,30.04,NE,49,0.0,1.0,93,0.00,,,0.00,Wunderground v.1.15,2013-07-31 15:59:00,
2013-07-31 09:04:00,57.2,54.9,30.04,NW,321,0.0,1.0,92,0.00,,,0.00,Wunderground v.1.15,2013-07-31 16:04:00,
2013-07-31 09:09:00,57.2,54.9,30.04,NW,321,0.0,1.0,92,0.00,,,0.00,Wunderground v.1.15,2013-07-31 16:09:00,
2013-07-31 09:14:00,57.5,55.2,30.04,North,7,2.0,2.0,92,0.00,,,0.00,Wunderground v.1.15,2013-07-31 16:14:00,
2013-07-31 09:19:00,57.5,54.9,30.04,SE,137,0.0,3.0,91,0.00,,,0.00,Wunderground v.1.15,2013-07-31 16:19:00,
2013-07-31 09:24:00,57.5,54.9,30.04,NW,316,0.0,5.0,91,0.00,,,0.00,Wunderground v.1.15,2013-07-31 16:24:00,
2013-07-31 09:29:00,57.6,55.0,30.04,NW,318,0.0,5.0,91,0.00,,,0.00,Wunderground v.1.15,2013-07-31 16:29:00,
2013-07-31 09:34:00,57.8,55.2,30.04,NE,49,1.0,3.0,91,0.00,,,0.00,Wunderground v.1.15,2013-07-31 16:34:00,
2013-07-31 09:39:00,58.1,55.2,30.04,NNW,337,0.0,3.0,90,0.00,,,0.00,Wunderground v.1.15,2013-07-31 16:39:00,
2013-07-31 09:44:00,58.3,55.1,30.04,NNW,345,0.0,4.0,89,0.00,,,0.00,Wunderground v.1.15,2013-07-31 16:44:00,
2013-07-31 09:49:00,58.6,55.4,30.03,NNE,20,2.0,4.0,89,0.00,,,0.00,Wunderground v.1.15,2013-07-31 16:49:00,
2013-07-31 09:54:00,59.2,55.6,30.03,WSW,254,0.0,4.0,88,0.00,,,0.00,Wunderground v.1.15,2013-07-31 16:54:00,
2013-07-31 09:59:00,59.8,55.6,30.03,North,1,0.0,4.0,86,0.00,,,0.00,Wunderground v.1.15,2013-07-31 16:59:00,
2013-07-31 10:04:00,60.7,55.8,30.03,ESE,115,0.0,3.0,84,0.00,,,0.00,Wunderground v.1.15,2013-07-31 17:04:00,
2013-07-31 10:09:00,61.8,56.2,30.03,NE,49,0.0,3.0,82,0.00,,,0.00,Wunderground v.1.15,2013-07-31 17:09:00,
2013-07-31 10:14:00,62.4,56.5,30.03,West,278,0.0,3.0,81,0.00,,,0.00,Wunderground v.1.15,2013-07-31 17:14:00,
2013-07-31 10:19:00,63.2,56.9,30.03,ESE,110,1.0,3.0,80,0.00,,,0.00,Wunderground v.1.15,2013-07-31 17:19:00,
2013-07-31 10:24:00,63.4,56.4,30.03,SSE,155,1.0,5.0,78,0.00,,,0.00,Wunderground v.1.15,2013-07-31 17:24:00,
2013-07-31 10:29:00,63.1,56.5,30.03,WNW,295,1.0,5.0,79,0.00,,,0.00,Wunderground v.1.15,2013-07-31 17:29:00,
2013-07-31 10:34:00,63.2,56.6,30.04,SE,141,2.0,4.0,79,0.00,,,0.00,Wunderground v.1.15,2013-07-31 17:34:00,
2013-07-31 10:39:00,63.4,56.8,30.04,SSE,157,2.0,6.0,79,0.00,,,0.00,Wunderground v.1.15,2013-07-31 17:39:00,
2013-07-31 10:44:00,63.1,56.1,30.04,SE,137,4.0,6.0,78,0.00,,,0.00,Wunderground v.1.15,2013-07-31 17:44:00,
2013-07-31 10:49:00,63.1,56.5,30.04,NE,52,1.0,6.0,79,0.00,,,0.00,Wunderground v.1.15,2013-07-31 17:49:00,
2013-07-31 10:54:00,63.9,56.9,30.04,ESE,111,2.0,4.0,78,0.00,,,0.00,Wunderground v.1.15,2013-07-31 17:54:00,
2013-07-31 10:59:00,64.7,56.6,30.04,North,0,5.0,7.0,75,0.00,,,0.00,Wunderground v.1.15,2013-07-31 17:59:00,
2013-07-31 11:04:00,64.3,56.6,30.04,WSW,246,0.0,7.0,76,0.00,,,0.00,Wunderground v.1.15,2013-07-31 18:04:00,
2013-07-31 11:09:00,64.0,56.3,30.04,East,81,5.0,7.0,76,0.00,,,0.00,Wunderground v.1.15,2013-07-31 18:09:00,
2013-07-31 11:14:00,63.5,56.2,30.04,North,1,4.0,9.0,77,0.00,,,0.00,Wunderground v.1.15,2013-07-31 18:14:00,
2013-07-31 11:19:00,63.2,56.2,30.04,North,8,0.0,9.0,78,0.00,,,0.00,Wunderground v.1.15,2013-07-31 18:19:00,
2013-07-31 11:24:00,63.7,56.4,30.04,ENE,60,0.0,4.0,77,0.00,,,0.00,Wunderground v.1.15,2013-07-31 18:24:00,
2013-07-31 11:29:00,64.0,56.3,30.04,WSW,240,1.0,5.0,76,0.00,,,0.00,Wunderground v.1.15,2013-07-31 18:29:00,
2013-07-31 11:34:00,64.2,56.5,30.04,SE,137,4.0,5.0,76,0.00,,,0.00,Wunderground v.1.15,2013-07-31 18:34:00,
2013-07-31 11:39:00,64.0,56.6,30.04,ESE,108,0.0,6.0,77,0.00,,,0.00,Wunderground v.1.15,2013-07-31 18:39:00,
2013-07-31 11:44:00,64.5,56.8,30.04,WNW,283,3.0,3.0,76,0.00,,,0.00,Wunderground v.1.15,2013-07-31 18:44:00,
2013-07-31 11:49:00,64.2,56.5,30.03,WSW,252,0.0,7.0,76,0.00,,,0.00,Wunderground v.1.15,2013-07-31 18:49:00,
2013-07-31 11:54:00,63.7,56.7,30.03,NE,42,0.0,6.0,78,0.00,,,0.00,Wunderground v.1.15,2013-07-31 18:54:00,
2013-07-31 11:59:00,63.7,56.0,30.03,WSW,244,1.0,6.0,76,0.00,,,0.00,Wunderground v.1.15,2013-07-31 18:59:00,
2013-07-31 12:04:00,63.5,56.2,30.04,North,350,4.0,5.0,77,0.00,,,0.00,Wunderground v.1.15,2013-07-31 19:04:00,
2013-07-31 12:09:00,63.9,56.5,30.04,ENE,70,0.0,5.0,77,0.00,,,0.00,Wunderground v.1.15,2013-07-31 19:09:00,
2013-07-31 12:14:00,63.9,56.2,30.04,ESE,121,3.0,10.0,76,0.00,,,0.00,Wunderground v.1.15,2013-07-31 19:14:00,
2013-07-31 12:19:00,63.5,56.2,30.03,SSE,152,3.0,10.0,77,0.00,,,0.00,Wunderground v.1.15,2013-07-31 19:19:00,
2013-07-31 12:24:00,63.7,56.0,30.03,NW,322,3.0,6.0,76,0.00,,,0.00,Wunderground v.1.15,2013-07-31 19:24:00,
2013-07-31 12:29:00,63.1,56.1,30.03,ESE,113,1.0,11.0,78,0.00,,,0.00,Wunderground v.1.15,2013-07-31 19:29:00,
2013-07-31 12:34:00,63.4,55.7,30.03,WNW,292,0.0,7.0,76,0.00,,,0.00,Wunderground v.1.15,2013-07-31 19:34:00,
2013-07-31 12:39:00,64.0,56.6,30.03,SE,143,2.0,7.0,77,0.00,,,0.00,Wunderground v.1.15,2013-07-31 19:39:00,
2013-07-31 12:44:00,64.2,56.8,30.03,NE,41,1.0,6.0,77,0.00,,,0.00,Wunderground v.1.15,2013-07-31 19:44:00,
2013-07-31 12:49:00,64.2,56.5,30.03,SE,124,3.0,7.0,76,0.00,,,0.00,Wunderground v.1.15,2013-07-31 19:49:00,
2013-07-31 12:54:00,64.3,56.2,30.03,NNW,340,1.0,6.0,75,0.00,,,0.00,Wunderground v.1.15,2013-07-31 19:54:00,
2013-07-31 12:59:00,64.2,56.5,30.03,NNE,16,1.0,7.0,76,0.00,,,0.00,Wunderground v.1.15,2013-07-31 19:59:00,
2013-07-31 13:04:00,63.9,56.2,30.03,North,359,3.0,4.0,76,0.00,,,0.00,Wunderground v.1.15,2013-07-31 20:04:00,
2013-07-31 13:09:00,63.7,55.6,30.03,NNW,333,3.0,5.0,75,0.00,,,0.00,Wunderground v.1.15,2013-07-31 20:09:00,
2013-07-31 13:14:00,63.4,55.7,30.03,SE,144,1.0,6.0,76,0.00,,,0.00,Wunderground v.1.15,2013-07-31 20:14:00,
2013-07-31 13:19:00,63.5,55.8,30.03,WSW,238,3.0,6.0,76,0.00,,,0.00,Wunderground v.1.15,2013-07-31 20:19:00,
2013-07-31 13:24:00,62.6,54.9,30.03,WSW,243,2.0,10.0,76,0.00,,,0.00,Wunderground v.1.15,2013-07-31 20:24:00,
2013-07-31 13:29:00,62.6,55.3,30.03,SSW,209,1.0,10.0,77,0.00,,,0.00,Wunderground v.1.15,2013-07-31 20:29:00,
2013-07-31 13:34:00,63.1,55.8,30.03,West,274,3.0,5.0,77,0.00,,,0.00,Wunderground v.1.15,2013-07-31 20:34:00,
2013-07-31 13:39:00,63.5,55.8,30.03,SSE,162,3.0,6.0,76,0.00,,,0.00,Wunderground v.1.15,2013-07-31 20:39:00,
2013-07-31 13:44:00,63.7,56.0,30.03,North,1,3.0,6.0,76,0.00,,,0.00,Wunderground v.1.15,2013-07-31 20:44:00,
2013-07-31 13:49:00,63.5,55.8,30.03,SW,235,3.0,7.0,76,0.00,,,0.00,Wunderground v.1.15,2013-07-31 20:49:00,
2013-07-31 13:54:00,63.9,56.2,30.03,North,357,5.0,5.0,76,0.00,,,0.00,Wunderground v.1.15,2013-07-31 20:54:00,
2013-07-31 13:59:00,63.5,55.8,30.03,NNW,340,2.0,7.0,76,0.00,,,0.00,Wunderground v.1.15,2013-07-31 20:59:00,
2013-07-31 14:04:00,63.1,55.8,30.03,North,4,3.0,10.0,77,0.00,,,0.00,Wunderground v.1.15,2013-07-31 21:04:00,
2013-07-31 14:10:00,62.3,55.0,30.03,WNW,301,2.0,10.0,77,0.00,,,0.00,Wunderground v.1.15,2013-07-31 21:10:00,
2013-07-31 14:14:00,62.3,55.4,30.02,NW,319,3.0,7.0,78,0.00,,,0.00,Wunderground v.1.15,2013-07-31 21:14:00,
2013-07-31 14:19:00,63.1,55.8,30.02,SW,224,0.0,7.0,77,0.00,,,0.00,Wunderground v.1.15,2013-07-31 21:19:00,
2013-07-31 14:24:00,63.2,55.1,30.02,North,1,0.0,8.0,75,0.00,,,0.00,Wunderground v.1.15,2013-07-31 21:24:00,
2013-07-31 14:30:00,63.2,55.5,30.02,North,1,3.0,8.0,76,0.00,,,0.00,Wunderground v.1.15,2013-07-31 21:30:00,
2013-07-31 14:34:00,63.4,55.7,30.02,ESE,107,1.0,5.0,76,0.00,,,0.00,Wunderground v.1.15,2013-07-31 21:34:00,
2013-07-31 14:40:00,63.5,55.4,30.02,North,359,3.0,5.0,75,0.00,,,0.00,Wunderground v.1.15,2013-07-31 21:40:00,
2013-07-31 14:45:00,63.5,55.8,30.01,NE,35,4.0,7.0,76,0.00,,,0.00,Wunderground v.1.15,2013-07-31 21:45:00,
2013-07-31 14:50:00,63.7,56.0,30.01,NE,36,0.0,7.0,76,0.00,,,0.00,Wunderground v.1.15,2013-07-31 21:50:00,
2013-07-31 14:55:00,63.4,55.7,30.01,NNE,29,4.0,10.0,76,0.00,,,0.00,Wunderground v.1.15,2013-07-31 21:55:00,
2013-07-31 15:00:00,63.1,55.8,30.01,ESE,110,1.0,11.0,77,0.00,,,0.00,Wunderground v.1.15,2013-07-31 22:00:00,
2013-07-31 15:05:00,63.7,56.0,30.01,NNW,333,6.0,7.0,76,0.00,,,0.00,Wunderground v.1.15,2013-07-31 22:05:00,
2013-07-31 15:10:00,64.0,55.9,30.01,North,8,3.0,3.0,75,0.00,,,0.00,Wunderground v.1.15,2013-07-31 22:10:00,
2013-07-31 15:15:00,63.9,55.8,30.00,North,0,0.0,4.0,75,0.00,,,0.00,Wunderground v.1.15,2013-07-31 22:15:00,
2013-07-31 15:20:00,64.3,56.2,30.00,NNE,13,5.0,5.0,75,0.00,,,0.00,Wunderground v.1.15,2013-07-31 22:20:00,
2013-07-31 15:25:00,64.2,56.1,30.00,North,359,6.0,6.0,75,0.00,,,0.00,Wunderground v.1.15,2013-07-31 22:25:00,
2013-07-31 15:30:00,64.5,56.4,30.00,SE,135,2.0,2.0,75,0.00,,,0.00,Wunderground v.1.15,2013-07-31 22:30:00,
2013-07-31 15:35:00,64.0,55.9,30.00,South,174,0.0,10.0,75,0.00,,,0.00,Wunderground v.1.15,2013-07-31 22:35:00,
2013-07-31 15:40:00,63.7,56.0,30.00,NE,42,2.0,2.0,76,0.00,,,0.00,Wunderground v.1.15,2013-07-31 22:40:00,
2013-07-31 15:45:00,63.7,56.0,30.00,North,1,5.0,5.0,76,0.00,,,0.00,Wunderground v.1.15,2013-07-31 22:45:00,
2013-07-31 15:50:00,63.7,56.4,30.00,North,1,7.0,7.0,77,0.00,,,0.00,Wunderground v.1.15,2013-07-31 22:50:00,
2013-07-31 15:55:00,63.5,55.8,30.00,SE,131,0.0,7.0,76,0.00,,,0.00,Wunderground v.1.15,2013-07-31 22:55:00,
2013-07-31 16:00:00,63.9,56.5,29.99,West,268,1.0,2.0,77,0.00,,,0.00,Wunderground v.1.15,2013-07-31 23:00:00,
2013-07-31 16:05:00,64.3,56.6,29.99,SE,132,0.0,6.0,76,0.00,,,0.00,Wunderground v.1.15,2013-07-31 23:05:00,
2013-07-31 16:10:00,64.2,56.5,29.99,West,273,1.0,2.0,76,0.00,,,0.00,Wunderground v.1.15,2013-07-31 23:10:00,
2013-07-31 16:15:00,64.3,56.6,29.99,ESE,120,1.0,4.0,76,0.00,,,0.00,Wunderground v.1.15,2013-07-31 23:15:00,
2013-07-31 16:20:00,64.5,56.8,29.99,ESE,110,0.0,1.0,76,0.00,,,0.00,Wunderground v.1.15,2013-07-31 23:20:00,
2013-07-31 16:25:00,64.0,56.3,29.99,North,0,2.0,10.0,76,0.00,,,0.00,Wunderground v.1.15,2013-07-31 23:25:00,
2013-07-31 16:30:00,63.1,55.8,29.99,WSW,237,5.0,5.0,77,0.00,,,0.00,Wunderground v.1.15,2013-07-31 23:30:00,
2013-07-31 16:35:00,63.4,56.4,29.99,North,1,3.0,5.0,78,0.00,,,0.00,Wunderground v.1.15,2013-07-31 23:35:00,
2013-07-31 16:40:00,62.4,55.8,29.99,NNE,30,0.0,3.0,79,0.00,,,0.00,Wunderground v.1.15,2013-07-31 23:40:00,
2013-07-31 16:45:00,62.4,56.1,29.98,ENE,60,2.0,6.0,80,0.00,,,0.00,Wunderground v.1.15,2013-07-31 23:45:00,
2013-07-31 16:50:00,62.4,56.1,29.98,NE,37,0.0,2.0,80,0.00,,,0.00,Wunderground v.1.15,2013-07-31 23:50:00,
2013-07-31 16:55:00,62.4,56.5,29.98,NNE,12,2.0,5.0,81,0.00,,,0.00,Wunderground v.1.15,2013-07-31 23:55:00,
2013-07-31 17:00:00,62.4,56.5,29.98,NE,34,0.0,2.0,81,0.00,,,0.00,Wunderground v.1.15,2013-08-01 00:00:00,
2013-07-31 17:05:00,62.4,56.5,29.98,North,356,1.0,5.0,81,0.00,,,0.00,Wunderground v.1.15,2013-08-01 00:05:00,
2013-07-31 17:10:00,62.3,56.0,29.98,ENE,67,3.0,4.0,80,0.00,,,0.00,Wunderground v.1.15,2013-08-01 00:10:00,
2013-07-31 17:15:00,62.1,55.9,29.98,North,359,1.0,5.0,80,0.00,,,0.00,Wunderground v.1.15,2013-08-01 00:15:00,
2013-07-31 17:20:00,61.6,55.7,29.98,NNE,23,1.0,2.0,81,0.00,,,0.00,Wunderground v.1.15,2013-08-01 00:20:00,
2013-07-31 17:29:00,61.2,56.0,29.98,NE,49,1.0,6.0,83,0.00,,,0.00,Wunderground v.1.15,2013-08-01 00:29:00,
2013-07-31 17:40:00,60.9,55.7,29.97,NNW,331,3.0,3.0,83,0.00,,,0.00,Wunderground v.1.15,2013-08-01 00:40:00,
2013-07-31 17:45:00,60.4,55.9,29.97,SE,137,0.0,5.0,85,0.00,,,0.00,Wunderground v.1.15,2013-08-01 00:45:00,
2013-07-31 17:50:00,60.4,55.9,29.97,North,4,2.0,4.0,85,0.00,,,0.00,Wunderground v.1.15,2013-08-01 00:50:00,
2013-07-31 17:55:00,60.4,56.2,29.97,ESE,123,0.0,5.0,86,0.00,,,0.00,Wunderground v.1.15,2013-08-01 00:55:00,
2013-07-31 18:00:00,60.2,56.0,29.96,North,351,2.0,4.0,86,0.00,,,0.00,Wunderground v.1.15,2013-08-01 01:00:00,
2013-07-31 18:05:00,60.1,55.9,29.96,WNW,285,0.0,5.0,86,0.00,,,0.00,Wunderground v.1.15,2013-08-01 01:05:00,
2013-07-31 18:10:00,60.1,55.9,29.96,SSW,205,2.0,2.0,86,0.00,,,0.00,Wunderground v.1.15,2013-08-01 01:10:00,
2013-07-31 18:15:00,59.9,56.0,29.96,NW,314,0.0,5.0,87,0.00,,,0.00,Wunderground v.1.15,2013-08-01 01:15:00,
2013-07-31 18:20:00,59.8,55.9,29.96,SSE,167,3.0,4.0,87,0.00,,,0.00,Wunderground v.1.15,2013-08-01 01:20:00,
2013-07-31 18:25:00,59.6,56.0,29.96,ESE,118,0.0,4.0,88,0.00,,,0.00,Wunderground v.1.15,2013-08-01 01:25:00,
2013-07-31 18:30:00,59.5,55.9,29.96,North,1,2.0,4.0,88,0.00,,,0.00,Wunderground v.1.15,2013-08-01 01:30:00,
2013-07-31 18:35:00,59.3,56.1,29.96,North,349,2.0,5.0,89,0.00,,,0.00,Wunderground v.1.15,2013-08-01 01:35:00,
2013-07-31 18:40:00,59.3,56.1,29.96,SW,234,0.0,1.0,89,0.00,,,0.00,Wunderground v.1.15,2013-08-01 01:40:00,
2013-07-31 18:45:00,59.2,56.0,29.96,East,82,0.0,5.0,89,0.00,,,0.00,Wunderground v.1.15,2013-08-01 01:45:00,
2013-07-31 18:50:00,59.0,56.1,29.96,NW,324,0.0,1.0,90,0.00,,,0.00,Wunderground v.1.15,2013-08-01 01:50:00,
2013-07-31 18:55:00,59.0,56.1,29.96,SE,139,0.0,4.0,90,0.00,,,0.00,Wunderground v.1.15,2013-08-01 01:55:00,
2013-07-31 19:00:00,58.9,56.0,29.96,SE,139,0.0,1.0,90,0.00,,,0.00,Wunderground v.1.15,2013-08-01 02:00:00,
2013-07-31 19:05:00,58.9,56.0,29.96,SE,124,0.0,4.0,90,0.00,,,0.00,Wunderground v.1.15,2013-08-01 02:05:00,
2013-07-31 19:10:00,58.7,56.1,29.96,SSE,148,1.0,1.0,91,0.00,,,0.00,Wunderground v.1.15,2013-08-01 02:10:00,
2013-07-31 19:16:00,58.6,56.0,29.96,WNW,286,0.0,2.0,91,0.00,,,0.00,Wunderground v.1.15,2013-08-01 02:16:00,
2013-07-31 19:21:00,58.4,55.8,29.96,SW,216,0.0,0.0,91,0.00,,,0.00,Wunderground v.1.15,2013-08-01 02:21:00,
2013-07-31 19:26:00,58.3,56.0,29.96,SW,216,0.0,1.0,92,0.00,,,0.00,Wunderground v.1.15,2013-08-01 02:26:00,
2013-07-31 19:31:00,58.3,56.0,29.96,SW,226,1.0,3.0,92,0.00,,,0.00,Wunderground v.1.15,2013-08-01 02:31:00,
2013-07-31 19:35:00,58.1,55.8,29.96,NNW,342,0.0,3.0,92,0.00,,,0.00,Wunderground v.1.15,2013-08-01 02:35:00,
2013-07-31 19:41:00,58.0,55.7,29.96,North,359,2.0,3.0,92,0.00,,,0.00,Wunderground v.1.15,2013-08-01 02:41:00,
2013-07-31 19:46:00,57.8,55.5,29.96,WSW,254,0.0,3.0,92,0.00,,,0.00,Wunderground v.1.15,2013-08-01 02:46:00,
2013-07-31 19:51:00,57.8,55.8,29.96,WSW,254,0.0,1.0,93,0.00,,,0.00,Wunderground v.1.15,2013-08-01 02:51:00,
2013-07-31 19:56:00,57.6,55.6,29.96,WSW,254,0.0,1.0,93,0.00,,,0.00,Wunderground v.1.15,2013-08-01 02:56:00,
2013-07-31 20:01:00,57.5,55.5,29.96,WSW,254,0.0,0.0,93,0.00,,,0.00,Wunderground v.1.15,2013-08-01 03:01:00,
2013-07-31 20:06:00,57.3,55.3,29.96,NNE,32,0.0,1.0,93,0.00,,,0.00,Wunderground v.1.15,2013-08-01 03:06:00,
2013-07-31 20:11:00,57.2,55.2,29.96,NNE,32,0.0,0.0,93,0.00,,,0.00,Wunderground v.1.15,2013-08-01 03:11:00,
2013-07-31 20:16:00,57.0,55.0,29.96,NNE,32,0.0,0.0,93,0.00,,,0.00,Wunderground v.1.15,2013-08-01 03:16:00,
2013-07-31 20:21:00,56.9,55.2,29.96,NNE,23,0.0,0.0,94,0.00,,,0.00,Wunderground v.1.15,2013-08-01 03:21:00,
2013-07-31 20:26:00,56.7,55.0,29.96,NNE,23,0.0,1.0,94,0.00,,,0.00,Wunderground v.1.15,2013-08-01 03:26:00,
2013-07-31 20:31:00,56.6,54.9,29.96,NNE,23,0.0,0.0,94,0.00,,,0.00,Wunderground v.1.15,2013-08-01 03:31:00,
2013-07-31 20:36:00,56.5,54.8,29.96,NNE,23,0.0,0.0,94,0.00,,,0.00,Wunderground v.1.15,2013-08-01 03:36:00,
2013-07-31 20:41:00,56.3,54.9,29.96,NNE,23,0.0,1.0,95,0.00,,,0.00,Wunderground v.1.15,2013-08-01 03:41:00,
2013-07-31 20:46:00,56.2,54.8,29.96,NNE,23,0.0,1.0,95,0.00,,,0.00,Wunderground v.1.15,2013-08-01 03:46:00,
2013-07-31 20:51:00,56.0,54.6,29.96,NNE,23,0.0,0.0,95,0.00,,,0.00,Wunderground v.1.15,2013-08-01 03:51:00,
2013-07-31 20:56:00,55.9,54.5,29.96,NNE,23,0.0,0.0,95,0.00,,,0.00,Wunderground v.1.15,2013-08-01 03:56:00,
2013-07-31 21:01:00,55.7,54.3,29.96,NNE,23,0.0,0.0,95,0.00,,,0.00,Wunderground v.1.15,2013-08-01 04:01:00,
2013-07-31 21:02:00,55.7,54.3,29.96,NNE,23,0.0,0.0,95,0.00,,,0.00,Wunderground v.1.15,2013-08-01 04:02:00,
2013-07-31 21:08:00,55.6,54.5,29.96,NNE,23,0.0,0.0,96,0.00,,,0.00,Wunderground v.1.15,2013-08-01 04:08:00,
2013-07-31 21:13:00,55.4,54.3,29.96,NNE,23,0.0,0.0,96,0.00,,,0.00,Wunderground v.1.15,2013-08-01 04:13:00,
2013-07-31 21:18:00,55.3,54.2,29.96,NNE,23,0.0,0.0,96,0.00,,,0.00,Wunderground v.1.15,2013-08-01 04:18:00,
2013-07-31 21:23:00,55.1,54.0,29.96,NNE,23,0.0,0.0,96,0.00,,,0.00,Wunderground v.1.15,2013-08-01 04:23:00,
2013-07-31 21:28:00,55.0,53.9,29.96,NNE,23,0.0,0.0,96,0.00,,,0.00,Wunderground v.1.15,2013-08-01 04:28:00,
2013-07-31 21:33:00,54.8,53.7,29.97,NNE,23,0.0,0.0,96,0.00,,,0.00,Wunderground v.1.15,2013-08-01 04:33:00,
2013-07-31 21:38:00,54.7,53.6,29.97,NNE,23,0.0,0.0,96,0.00,,,0.00,Wunderground v.1.15,2013-08-01 04:38:00,
2013-07-31 21:43:00,54.5,53.4,29.97,NNE,23,0.0,0.0,96,0.00,,,0.00,Wunderground v.1.15,2013-08-01 04:43:00,
2013-07-31 21:48:00,54.4,53.3,29.97,NNE,23,0.0,0.0,96,0.00,,,0.00,Wunderground v.1.15,2013-08-01 04:48:00,
2013-07-31 21:53:00,54.2,53.4,29.97,NNE,23,0.0,0.0,97,0.00,,,0.00,Wunderground v.1.15,2013-08-01 04:53:00,
2013-07-31 21:58:00,54.1,53.3,29.97,NNE,23,0.0,0.0,97,0.00,,,0.00,Wunderground v.1.15,2013-08-01 04:58:00,
2013-07-31 22:03:00,54.1,53.3,29.97,NNE,23,0.0,0.0,97,0.00,,,0.00,Wunderground v.1.15,2013-08-01 05:03:00,
2013-07-31 22:08:00,54.1,53.3,29.97,NNE,23,0.0,0.0,97,0.00,,,0.00,Wunderground v.1.15,2013-08-01 05:08:00,
2013-07-31 22:13:00,53.9,53.1,29.97,NNE,23,0.0,0.0,97,0.00,,,0.00,Wunderground v.1.15,2013-08-01 05:13:00,
2013-07-31 22:18:00,53.8,53.0,29.96,NNE,23,0.0,0.0,97,0.00,,,0.00,Wunderground v.1.15,2013-08-01 05:18:00,
2013-07-31 22:23:00,53.6,53.0,29.96,NNE,23,0.0,0.0,98,0.00,,,0.00,Wunderground v.1.15,2013-08-01 05:23:00,
2013-07-31 22:28:00,53.6,53.0,29.96,NNE,22,0.0,0.0,98,0.00,,,0.00,Wunderground v.1.15,2013-08-01 05:28:00,
2013-07-31 22:33:00,53.5,52.9,29.96,NNE,23,0.0,0.0,98,0.00,,,0.00,Wunderground v.1.15,2013-08-01 05:33:00,
2013-07-31 22:38:00,53.3,52.8,29.96,NNE,23,0.0,0.0,98,0.00,,,0.00,Wunderground v.1.15,2013-08-01 05:38:00,
2013-07-31 22:43:00,53.2,52.7,29.96,NNE,23,0.0,0.0,98,0.00,,,0.00,Wunderground v.1.15,2013-08-01 05:43:00,
2013-07-31 22:48:00,53.1,52.8,29.96,NNE,23,0.0,0.0,99,0.00,,,0.00,Wunderground v.1.15,2013-08-01 05:48:00,
2013-07-31 22:53:00,52.9,52.6,29.96,NNE,23,0.0,0.0,99,0.00,,,0.00,Wunderground v.1.15,2013-08-01 05:53:00,
2013-07-31 22:58:00,52.8,52.5,29.96,NNE,23,0.0,0.0,99,0.00,,,0.00,Wunderground v.1.15,2013-08-01 05:58:00,
2013-07-31 23:03:00,52.8,52.5,29.96,NNE,23,0.0,0.0,99,0.00,,,0.00,Wunderground v.1.15,2013-08-01 06:03:00,
2013-07-31 23:08:00,52.6,52.3,29.96,NNE,23,0.0,0.0,99,0.00,,,0.00,Wunderground v.1.15,2013-08-01 06:08:00,
2013-07-31 23:13:00,52.6,52.6,29.96,NNE,23,0.0,0.0,100,0.00,,,0.00,Wunderground v.1.15,2013-08-01 06:13:00,
2013-07-31 23:18:00,52.5,52.5,29.96,NNE,23,0.0,0.0,100,0.00,,,0.00,Wunderground v.1.15,2013-08-01 06:18:00,
2013-07-31 23:23:00,52.5,52.5,29.96,NNE,23,0.0,0.0,100,0.00,,,0.00,Wunderground v.1.15,2013-08-01 06:23:00,
2013-07-31 23:28:00,52.8,52.8,29.96,NNE,23,0.0,0.0,100,0.00,,,0.00,Wunderground v.1.15,2013-08-01 06:28:00,
2013-07-31 23:33:00,52.9,52.9,29.96,NNE,23,0.0,0.0,100,0.00,,,0.00,Wunderground v.1.15,2013-08-01 06:33:00,
2013-07-31 23:38:00,52.9,52.9,29.96,NNE,23,0.0,0.0,100,0.00,,,0.00,Wunderground v.1.15,2013-08-01 06:38:00,
2013-07-31 23:43:00,52.8,52.8,29.96,NNE,23,0.0,0.0,100,0.00,,,0.00,Wunderground v.1.15,2013-08-01 06:43:00,
2013-07-31 23:48:00,52.8,52.8,29.96,NNE,23,0.0,0.0,100,0.00,,,0.00,Wunderground v.1.15,2013-08-01 06:48:00,
2013-07-31 23:53:00,52.8,52.8,29.96,NNE,23,0.0,0.0,100,0.00,,,0.00,Wunderground v.1.15,2013-08-01 06:53:00,
2013-07-31 23:58:00,52.6,52.6,29.96,NNE,23,0.0,0.0,100,0.00,,,0.00,Wunderground v.1.15,2013-08-01 06:58:00,